»·PEaware :: WAT234 KSLC-KSFO

WAT234 :: KSLC-KSFO

FLIGHT INFORMATION

Flight Status: Arrived
Operator:
Walker Air Transport
More flights by this operator :: More flights under this callsign
Pilot: Eduardo Elias G. (24838)
Aircraft: BOEING 747-400 (WINGLETS)
(B744)
More flights by this aircraft type
Origin: KSLC Salt Lake City Intl
United States
Destination: KSFO San Francisco Intl
United States
More flights between these airports :: More routes between these airports
Route: +DEZRT1 BAM J94 LLC LEGGS BDEGA3
File this flight plan on PilotEdge
Remarks:
Altitude:
(Current/Filed)
38,000ft
Speed:
(Current/Filed)
510kts
Departed: 27-Sep-20 02:30 PM
Arrived: 27-Sep-20 04:00 PM
Distance/Time
Traveled:
519nm/1:29
Distance/Time
To Go:
Arrived

Flight Plot

Page will automatically refresh every two minutes.

Flight plan parsing failed; only flown route is shown


Map Options




Map Legend


Flown Route
Filed Route
Departure Airport
Arrival Airport
Navaid (VOR, NDB)
Fix

Horizontal Profiles

Position Reports

Time Latitude Longitude Heading Altitude Ground
Speed
27-Sep-20 13:49 40.789141 -111.980729 229 4240ft 0kts
27-Sep-20 13:50 40.789141 -111.980729 229 4240ft 0kts
27-Sep-20 13:51 40.789141 -111.980729 229 4240ft 0kts
27-Sep-20 13:52 40.789141 -111.980729 229 4240ft 0kts
27-Sep-20 13:52 40.789141 -111.980729 229 4240ft 0kts
27-Sep-20 13:54 40.789141 -111.980729 229 4240ft 0kts
27-Sep-20 13:55 40.789141 -111.980729 229 4240ft 0kts
27-Sep-20 13:55 40.789141 -111.980729 229 4240ft 0kts
27-Sep-20 13:56 40.789141 -111.980729 229 4240ft 0kts
27-Sep-20 13:58 40.789141 -111.980729 229 4240ft 0kts
27-Sep-20 13:58 40.789141 -111.980729 229 4240ft 0kts
27-Sep-20 13:59 40.789141 -111.980729 229 4240ft 0kts
27-Sep-20 14:00 40.789141 -111.980729 229 4240ft 0kts
27-Sep-20 14:01 40.789141 -111.980729 229 4240ft 0kts
27-Sep-20 14:02 40.789141 -111.980729 229 4240ft 0kts
27-Sep-20 14:03 40.789141 -111.980729 229 4240ft 0kts
27-Sep-20 14:04 40.789141 -111.980729 229 4240ft 0kts
27-Sep-20 14:05 40.789141 -111.980729 229 4240ft 0kts
27-Sep-20 14:06 40.789141 -111.980729 229 4240ft 0kts
27-Sep-20 14:07 40.789141 -111.980729 229 4240ft 0kts
27-Sep-20 14:08 40.789141 -111.980729 229 4240ft 0kts
27-Sep-20 14:09 40.789141 -111.980729 229 4240ft 0kts
27-Sep-20 14:10 40.789237 -111.980579 247 4240ft 2kts
27-Sep-20 14:11 40.788933 -111.979908 344 4240ft 2kts
27-Sep-20 14:12 40.788798 -111.979864 355 4240ft 0kts
27-Sep-20 14:13 40.788798 -111.979864 355 4240ft 0kts
27-Sep-20 14:14 40.788798 -111.979864 355 4240ft 0kts
27-Sep-20 14:15 40.788798 -111.979864 355 4240ft 0kts
27-Sep-20 14:16 40.788798 -111.979864 355 4240ft 0kts
27-Sep-20 14:17 40.788798 -111.979864 355 4240ft 0kts
27-Sep-20 14:18 40.788798 -111.979864 355 4240ft 0kts
27-Sep-20 14:19 40.788798 -111.979864 355 4240ft 0kts
27-Sep-20 14:20 40.788798 -111.979864 355 4240ft 0kts
27-Sep-20 14:21 40.788798 -111.979864 355 4240ft 0kts
27-Sep-20 14:22 40.789224 -111.979882 6 4240ft 4kts
27-Sep-20 14:23 40.789122 -111.977025 173 4240ft 11kts
27-Sep-20 14:24 40.784192 -111.976465 174 4240ft 22kts
27-Sep-20 14:25 40.777674 -111.975290 175 4240ft 21kts
27-Sep-20 14:26 40.774968 -111.974968 174 4240ft 0kts
27-Sep-20 14:27 40.774967 -111.974968 174 4240ft 0kts
27-Sep-20 14:28 40.774485 -111.974231 73 4240ft 8kts
27-Sep-20 14:29 40.776664 -111.973369 354 4240ft 55kts
27-Sep-20 14:30 40.822877 -111.974884 353 6624ft 192kts
27-Sep-20 14:31 40.865627 -112.032672 307 8131ft 252kts
27-Sep-20 14:32 40.908636 -112.109896 307 10654ft 266kts
27-Sep-20 14:33 40.945968 -112.190677 280 13938ft 283kts
27-Sep-20 14:34 40.915054 -112.310940 250 14896ft 394kts
27-Sep-20 14:35 40.872477 -112.446700 262 17137ft 403kts
27-Sep-20 14:36 40.861462 -112.594986 270 20572ft 414kts
27-Sep-20 14:37 40.848657 -112.748999 269 23184ft 429kts
27-Sep-20 14:38 40.841006 -112.906023 276 23404ft 426kts
27-Sep-20 14:39 40.842003 -113.062564 275 23398ft 426kts
27-Sep-20 14:40 40.842101 -113.219339 275 23658ft 430kts
27-Sep-20 14:41 40.842560 -113.379301 275 26545ft 441kts
27-Sep-20 14:42 40.842919 -113.544489 275 28880ft 456kts
27-Sep-20 14:43 40.842231 -113.712126 275 31499ft 451kts
27-Sep-20 14:44 40.841406 -113.877240 275 33703ft 447kts
27-Sep-20 14:45 40.840151 -114.040024 274 35500ft 445kts
27-Sep-20 14:46 40.838646 -114.203247 275 37114ft 441kts
27-Sep-20 14:47 40.837833 -114.364407 275 38353ft 439kts
27-Sep-20 14:48 40.836308 -114.526078 274 38394ft 439kts
27-Sep-20 14:49 40.834166 -114.687617 274 38399ft 444kts
27-Sep-20 14:50 40.822421 -114.853773 266 38402ft 467kts
27-Sep-20 14:51 40.802234 -115.026468 267 38405ft 484kts
27-Sep-20 14:52 40.781865 -115.204046 266 38408ft 492kts
27-Sep-20 14:53 40.760794 -115.382780 266 38409ft 493kts
27-Sep-20 14:54 40.739403 -115.561362 265 38409ft 493kts
27-Sep-20 14:55 40.717525 -115.740447 265 38409ft 494kts
27-Sep-20 14:56 40.695965 -115.919307 265 38410ft 494kts
27-Sep-20 14:57 40.674230 -116.098340 264 38413ft 496kts
27-Sep-20 14:58 40.651840 -116.277773 264 38417ft 495kts
27-Sep-20 14:59 40.629191 -116.456804 264 38419ft 496kts
27-Sep-20 15:00 40.606684 -116.635526 264 38418ft 496kts
27-Sep-20 15:01 40.583132 -116.814842 264 38419ft 496kts
27-Sep-20 15:02 40.552223 -116.991731 255 38419ft 500kts
27-Sep-20 15:03 40.505527 -117.164705 254 38417ft 502kts
27-Sep-20 15:04 40.459558 -117.337361 254 38413ft 501kts
27-Sep-20 15:05 40.414377 -117.510613 254 38409ft 501kts
27-Sep-20 15:06 40.368480 -117.683209 254 38405ft 501kts
27-Sep-20 15:07 40.322268 -117.855494 254 38396ft 501kts
27-Sep-20 15:08 40.275738 -118.027747 254 38385ft 501kts
27-Sep-20 15:09 40.229013 -118.200034 254 38378ft 501kts
27-Sep-20 15:10 40.182241 -118.371426 253 38373ft 501kts
27-Sep-20 15:11 40.134767 -118.542744 253 38370ft 501kts
27-Sep-20 15:12 40.084517 -118.713198 251 38370ft 502kts
27-Sep-20 15:13 40.032991 -118.882201 251 38367ft 502kts
27-Sep-20 15:14 39.981735 -119.051455 252 38360ft 502kts
27-Sep-20 15:15 39.930420 -119.221213 251 38358ft 502kts
27-Sep-20 15:16 39.878881 -119.389346 251 38360ft 500kts
27-Sep-20 15:17 39.826863 -119.557842 251 38363ft 500kts
27-Sep-20 15:18 39.774920 -119.725046 251 38366ft 500kts
27-Sep-20 15:19 39.722486 -119.892795 251 38374ft 499kts
27-Sep-20 15:20 39.670075 -120.059464 250 38376ft 499kts
27-Sep-20 15:21 39.617170 -120.226677 250 38363ft 500kts
27-Sep-20 15:22 39.564179 -120.393163 250 38352ft 501kts
27-Sep-20 15:23 39.510645 -120.560348 250 38328ft 502kts
27-Sep-20 15:24 39.457057 -120.727035 250 38276ft 503kts
27-Sep-20 15:25 39.403036 -120.894309 249 38232ft 504kts
27-Sep-20 15:27 39.348315 -121.061253 248 38158ft 505kts
27-Sep-20 15:28 39.265405 -121.208221 231 37979ft 511kts
27-Sep-20 15:29 39.172466 -121.347671 232 37910ft 512kts
27-Sep-20 15:30 39.080581 -121.487815 232 37883ft 512kts
27-Sep-20 15:31 38.988564 -121.627971 231 37894ft 512kts
27-Sep-20 15:32 38.896452 -121.767223 231 37212ft 509kts
27-Sep-20 15:33 38.803871 -121.906540 230 35546ft 513kts
27-Sep-20 15:34 38.711187 -122.045408 230 30661ft 516kts
27-Sep-20 15:35 38.619925 -122.182097 230 27071ft 495kts
27-Sep-20 15:36 38.531717 -122.312847 231 24706ft 460kts
27-Sep-20 15:37 38.453066 -122.429027 231 23891ft 408kts
27-Sep-20 15:38 38.379170 -122.539378 231 22278ft 406kts
27-Sep-20 15:39 38.305977 -122.647540 230 20681ft 400kts
27-Sep-20 15:40 38.226946 -122.743860 200 19097ft 397kts
27-Sep-20 15:41 38.119757 -122.738533 165 17633ft 383kts
27-Sep-20 15:42 38.016674 -122.707139 164 15888ft 377kts
27-Sep-20 15:42 37.932265 -122.682712 165 14627ft 370kts
27-Sep-20 15:44 37.837113 -122.608494 135 12968ft 351kts
27-Sep-20 15:45 37.765082 -122.530766 137 11591ft 331kts
27-Sep-20 15:45 37.708366 -122.470617 135 11010ft 311kts
27-Sep-20 15:46 37.657362 -122.381418 119 9257ft 310kts
27-Sep-20 15:48 37.605788 -122.280066 119 7330ft 263kts
27-Sep-20 15:48 37.574910 -122.220658 119 6185ft 228kts
27-Sep-20 15:49 37.540372 -122.154965 119 6006ft 220kts
27-Sep-20 15:50 37.529927 -122.085747 75 5469ft 206kts
27-Sep-20 15:51 37.530630 -122.018422 131 4115ft 207kts
27-Sep-20 15:52 37.488723 -122.045037 270 4020ft 216kts
27-Sep-20 15:53 37.508274 -122.112795 302 4000ft 192kts
27-Sep-20 15:54 37.530793 -122.165829 303 3351ft 160kts
27-Sep-20 15:55 37.550973 -122.213770 303 2523ft 151kts
27-Sep-20 15:56 37.570550 -122.260343 302 1723ft 149kts
27-Sep-20 15:57 37.589856 -122.306297 299 934ft 150kts
27-Sep-20 15:58 37.609245 -122.352637 299 164ft 148kts
27-Sep-20 15:59 37.619905 -122.378833 244 25ft 7kts
27-Sep-20 16:00 37.619432 -122.379607 226 25ft 0kts
27-Sep-20 16:01 37.619374 -122.379685 226 25ft 7kts
27-Sep-20 16:02 37.616741 -122.379613 199 25ft 11kts
27-Sep-20 16:03 37.616066 -122.381409 359 25ft 4kts
27-Sep-20 16:04 37.616401 -122.381295 19 25ft 0kts
27-Sep-20 16:05 37.616401 -122.381295 19 25ft 0kts

Navigation Log

Ident Type
Flight plan parsing failed, navigation log unavailable